Terminal Aerodrome Forecast
Issued by NWS

Current Version | Previous Version | Text Only | Print | Product List | Glossary On
Versions: 1 2 3 4 5 6 7 8 9 10 11 12
932
FTUS45 KABQ 201131
TAFFMN
TAF
KFMN 201131Z 2012/2112 28009KT P6SM SCT070
      TEMPO 2012/2015 6SM BR SCT015
     FM201600 VRB04KT P6SM FEW050
     FM202000 28011KT P6SM SCT150
     FM210200 07005KT P6SM SCT120=

USA.gov is the U.S. government's official web portal to all federal, state and local government web resources and services.